Time;durP1;ratioP1;P1;durP2;ratioP2;P2;SDS_P1;SDS_P2;PMS_P1;PMS_P2;Temp;Humidity;BMP_temperature;BMP_pressure;BME280_temperature;BME280_humidity;BME280_pressure;Samples;Min_cycle;Max_cycle;Signal;HPM_P1;HPM_P2
2022/07/07 00:01:40;;;;;;;21.27;19.08;;;;;;;22.66;81.64;99203.75;5072638;28;20339;-62
2022/07/07 00:04:08;;;;;;;21.00;18.75;;;;;;;22.58;81.35;99204.38;5083847;28;20041;-62
2022/07/07 00:06:34;;;;;;;23.25;18.73;;;;;;;22.67;81.66;99216.81;5083736;28;20031;-63
2022/07/07 00:09:01;;;;;;;19.17;17.15;;;;;;;22.66;81.28;99201.97;5083394;28;20017;-62
2022/07/07 00:11:26;;;;;;;20.42;18.27;;;;;;;22.63;81.45;99193.44;5068272;28;20096;-62
2022/07/07 00:13:52;;;;;;;21.48;19.15;;;;;;;22.56;81.84;99201.88;5063593;28;20059;-62
2022/07/07 00:16:18;;;;;;;20.75;18.08;;;;;;;22.63;81.78;99206.66;5045978;28;20344;-62
2022/07/07 00:18:44;;;;;;;21.33;18.63;;;;;;;22.66;81.28;99203.75;5063295;28;20099;-62
2022/07/07 00:21:10;;;;;;;20.83;18.65;;;;;;;22.61;81.68;99200.66;5063485;28;20032;-62
2022/07/07 00:23:36;;;;;;;21.88;19.20;;;;;;;22.60;81.61;99201.63;5079735;28;20028;-63
2022/07/07 00:26:02;;;;;;;21.40;19.40;;;;;;;22.52;81.99;99197.78;5071749;28;20368;-62
2022/07/07 00:28:28;;;;;;;22.75;18.17;;;;;;;22.66;82.05;99198.47;5063287;28;20147;-61
2022/07/07 00:30:54;;;;;;;18.70;16.88;;;;;;;22.68;81.69;99201.84;5065330;28;20029;-62
2022/07/07 00:33:19;;;;;;;19.60;17.60;;;;;;;22.63;82.18;99196.94;5083459;28;20265;-61
2022/07/07 00:35:45;;;;;;;19.95;18.02;;;;;;;22.62;82.10;99192.63;5083232;28;20088;-63
2022/07/07 00:38:11;;;;;;;21.65;19.25;;;;;;;22.62;81.89;99197.03;5076392;28;20106;-62
2022/07/07 00:40:36;;;;;;;21.25;19.02;;;;;;;22.67;81.72;99206.28;5062437;28;20025;-62
2022/07/07 00:43:02;;;;;;;20.60;18.48;;;;;;;22.62;82.13;99191.75;5063166;28;20044;-62
2022/07/07 00:45:28;;;;;;;19.05;17.13;;;;;;;22.67;81.71;99195.72;5063235;28;20040;-62
2022/07/07 00:47:53;;;;;;;18.58;16.77;;;;;;;22.64;82.55;99190.69;5063669;28;20020;-63
2022/07/07 00:50:20;;;;;;;19.83;17.73;;;;;;;22.54;82.08;99187.09;5083030;28;20083;-63
2022/07/07 00:52:47;;;;;;;22.25;17.85;;;;;;;22.62;82.20;99194.41;5082931;28;20399;-62
2022/07/07 00:55:12;;;;;;;20.45;17.13;;;;;;;22.63;82.22;99199.59;5069973;28;20341;-64
2022/07/07 00:57:38;;;;;;;20.83;18.65;;;;;;;22.62;82.30;99197.91;5083414;28;20036;-63
2022/07/07 01:00:13;;;;;;;19.38;17.40;;;;;;;22.60;82.62;99194.53;5082666;28;20047;-61
2022/07/07 01:02:42;;;;;;;21.55;19.02;;;;;;;22.50;83.13;99197.06;5066613;28;20025;-61
2022/07/07 01:05:08;;;;;;;22.98;17.92;;;;;;;22.56;82.78;99196.59;5063836;28;20063;-61
2022/07/07 01:07:35;;;;;;;27.02;23.95;;;;;;;22.50;82.62;99193.59;5070032;28;20030;-61
2022/07/07 01:10:03;;;;;;;19.55;17.73;;;;;;;22.46;82.75;99179.81;5079919;28;20041;-62
2022/07/07 01:12:34;;;;;;;22.27;19.52;;;;;;;22.17;83.10;99153.03;5062827;28;20032;-61
2022/07/07 01:14:59;;;;;;;20.73;18.48;;;;;;;22.44;83.48;99192.25;5081765;28;20078;-62
2022/07/07 01:17:25;;;;;;;22.42;20.25;;;;;;;22.44;83.44;99200.19;5068256;28;20024;-63
2022/07/07 01:19:51;;;;;;;22.65;20.33;;;;;;;22.41;83.37;99197.78;5071239;28;20070;-62
2022/07/07 01:22:17;;;;;;;22.70;20.48;;;;;;;22.39;83.62;99191.81;5082716;28;20033;-62
2022/07/07 01:24:43;;;;;;;21.38;18.88;;;;;;;22.45;83.03;99196.59;5082444;28;20428;-63
2022/07/07 01:27:14;;;;;;;20.35;18.15;;;;;;;22.06;83.56;99138.03;5062792;28;20048;-62
2022/07/07 01:29:42;;;;;;;22.88;18.70;;;;;;;22.09;82.77;99151.00;5078939;28;20070;-62
2022/07/07 01:32:08;;;;;;;20.08;18.02;;;;;;;22.42;82.99;99194.19;5070656;28;20028;-62
2022/07/07 01:34:35;;;;;;;21.55;19.17;;;;;;;22.45;83.00;99193.94;5052054;28;20043;-62
2022/07/07 01:37:01;;;;;;;21.30;19.23;;;;;;;22.49;82.78;99197.16;5082080;28;20025;-62
2022/07/07 01:39:27;;;;;;;24.73;18.95;;;;;;;22.48;82.97;99200.78;5065019;28;20366;-62
2022/07/07 01:41:52;;;;;;;22.45;20.10;;;;;;;22.44;82.46;99188.78;5062489;28;20048;-61
2022/07/07 01:44:18;;;;;;;20.15;18.00;;;;;;;22.48;83.05;99196.34;5075652;28;20031;-61
2022/07/07 01:46:43;;;;;;;20.95;18.95;;;;;;;22.48;83.26;99198.97;5076129;28;20025;-62
2022/07/07 01:49:10;;;;;;;21.17;18.88;;;;;;;22.46;83.32;99197.41;5081416;28;20025;-61
2022/07/07 01:51:35;;;;;;;21.20;19.10;;;;;;;22.52;82.56;99200.41;5049411;28;20093;-61
2022/07/07 01:54:01;;;;;;;20.45;18.38;;;;;;;22.50;83.55;99198.84;5077807;28;20027;-61
2022/07/07 01:56:26;;;;;;;21.40;18.88;;;;;;;22.48;83.33;99201.63;5076655;28;20283;-61
2022/07/07 01:58:52;;;;;;;21.27;19.27;;;;;;;22.50;82.75;99189.16;5082163;28;20025;-61
2022/07/07 02:01:18;;;;;;;22.33;20.05;;;;;;;22.52;82.99;99199.59;5082204;28;20020;-61
2022/07/07 02:03:44;;;;;;;21.25;18.67;;;;;;;22.55;82.28;99199.34;5082430;28;20032;-61
2022/07/07 02:06:09;;;;;;;21.60;19.40;;;;;;;22.51;82.76;99193.47;5082301;28;20020;-61
2022/07/07 02:08:35;;;;;;;21.58;19.35;;;;;;;22.49;82.83;99182.19;5049002;28;20404;-61
2022/07/07 02:11:13;;;;;;;21.67;19.48;;;;;;;22.54;82.67;99195.03;5062054;28;20040;-63
2022/07/07 02:13:47;;;;;;;26.73;18.90;;;;;;;22.28;82.32;99152.19;5069741;28;20240;-62
2022/07/07 02:16:33;;;;;;;22.52;19.25;;;;;;;22.55;82.76;99188.78;5060919;28;20029;-62
2022/07/07 02:19:04;;;;;;;20.27;18.08;;;;;;;22.53;83.05;99207.38;5061788;28;20021;-62
2022/07/07 02:21:30;;;;;;;21.33;19.13;;;;;;;22.48;82.30;99196.34;5061823;28;20055;-62
2022/07/07 02:23:57;;;;;;;22.02;19.77;;;;;;;22.57;82.04;99193.00;5080284;28;20066;-62
2022/07/07 02:26:23;;;;;;;20.02;17.88;;;;;;;22.55;83.10;99194.06;5066311;28;20050;-62
2022/07/07 02:28:49;;;;;;;22.95;19.67;;;;;;;22.54;82.56;99193.22;5052823;28;20035;-62
2022/07/07 02:31:15;;;;;;;21.00;19.00;;;;;;;22.55;81.67;99189.63;5084200;28;20020;-62
2022/07/07 02:33:41;;;;;;;19.98;18.00;;;;;;;22.63;81.53;99196.09;5085781;28;20218;-63
2022/07/07 02:36:08;;;;;;;21.88;19.27;;;;;;;22.61;81.84;99190.94;5085611;28;20217;-63
2022/07/07 02:38:36;;;;;;;20.08;18.13;;;;;;;22.68;81.35;99188.66;5075142;28;20087;-62
2022/07/07 02:41:02;;;;;;;24.60;19.85;;;;;;;22.69;81.34;99192.97;5075654;28;20301;-61
2022/07/07 02:43:28;;;;;;;20.65;18.70;;;;;;;22.64;81.34;99185.41;5066942;28;20283;-62
2022/07/07 02:45:54;;;;;;;21.15;18.95;;;;;;;22.68;81.90;99188.66;5078607;28;20097;-61
2022/07/07 02:48:22;;;;;;;22.02;18.92;;;;;;;22.50;80.95;99146.06;5066379;28;20336;-62
2022/07/07 02:50:48;;;;;;;21.05;18.83;;;;;;;22.78;80.50;99191.38;5064931;28;20314;-62
2022/07/07 02:53:15;;;;;;;20.63;18.52;;;;;;;22.68;80.90;99183.38;5077305;28;20141;-61
2022/07/07 02:55:41;;;;;;;21.67;18.48;;;;;;;22.77;80.01;99185.25;5067475;28;20029;-61
2022/07/07 02:58:08;;;;;;;19.95;17.88;;;;;;;22.78;80.54;99189.59;5067906;28;20051;-61
2022/07/07 03:00:35;;;;;;;19.98;17.85;;;;;;;22.85;80.18;99203.97;5085011;28;20074;-61
2022/07/07 03:03:03;;;;;;;20.42;17.15;;;;;;;22.89;80.53;99209.84;5066396;28;20099;-61
2022/07/07 03:05:29;;;;;;;18.83;16.95;;;;;;;22.86;80.08;99210.94;5078915;28;20028;-60
2022/07/07 03:07:55;;;;;;;19.55;17.63;;;;;;;22.89;80.14;99204.56;5085229;28;20036;-60
2022/07/07 03:10:21;;;;;;;21.42;19.15;;;;;;;22.85;80.37;99203.13;5080002;28;20257;-60
2022/07/07 03:12:47;;;;;;;19.65;17.65;;;;;;;22.93;80.11;99211.25;5064881;28;20044;-60
2022/07/07 03:15:13;;;;;;;21.50;18.00;;;;;;;22.80;80.10;99211.41;5044846;28;20025;-60
2022/07/07 03:17:44;;;;;;;21.58;18.42;;;;;;;22.83;80.16;99218.25;5059966;28;20024;-61
2022/07/07 03:20:11;;;;;;;21.52;18.05;;;;;;;22.89;79.59;99208.03;5076256;28;20111;-60
2022/07/07 03:22:38;;;;;;;19.48;17.35;;;;;;;;;;5077747;28;20029;-59
2022/07/07 03:25:05;;;;;;;20.23;17.75;;;;;;;22.97;79.80;99214.50;5066835;28;20048;-60
2022/07/07 03:27:30;;;;;;;19.23;17.40;;;;;;;23.16;78.80;99212.09;5084478;28;20084;-61
2022/07/07 03:29:56;;;;;;;22.92;18.25;;;;;;;23.23;77.78;99218.53;5066641;28;20074;-60
2022/07/07 03:32:21;;;;;;;19.05;17.13;;;;;;;23.36;77.99;99218.38;5077294;28;20044;-62
2022/07/07 03:34:47;;;;;;;18.63;16.85;;;;;;;23.49;77.79;99212.91;5084400;28;20031;-60
2022/07/07 03:37:12;;;;;;;17.73;15.93;;;;;;;23.56;76.89;99216.72;5084192;28;20036;-60
2022/07/07 03:39:38;;;;;;;18.40;16.50;;;;;;;23.56;76.79;99200.03;5065681;28;20037;-60
2022/07/07 03:42:04;;;;;;;18.08;15.85;;;;;;;23.69;76.56;99229.75;5081915;28;20194;-60
2022/07/07 03:44:29;;;;;;;17.83;15.15;;;;;;;23.76;76.40;99214.22;5066236;28;20044;-60
2022/07/07 03:46:55;;;;;;;17.10;15.15;;;;;;;23.88;76.49;99217.66;5056929;28;20135;-60
2022/07/07 03:49:20;;;;;;;16.58;14.73;;;;;;;24.02;75.54;99213.84;5064007;28;20245;-60
2022/07/07 03:51:46;;;;;;;18.95;15.13;;;;;;;24.05;75.45;99216.22;5046172;28;20025;-60
2022/07/07 03:54:12;;;;;;;16.23;14.63;;;;;;;24.09;75.00;99225.59;5078370;28;20029;-60
2022/07/07 03:56:39;;;;;;;14.60;13.30;;;;;;;24.25;74.41;99223.28;5078723;28;20088;-60
2022/07/07 03:59:05;;;;;;;15.98;14.07;;;;;;;24.27;74.46;99202.81;5083065;28;20086;-59
2022/07/07 04:01:30;;;;;;;19.35;17.10;;;;;;;24.28;73.86;99224.84;5083270;28;20309;-59
2022/07/07 04:03:56;;;;;;;17.17;14.07;;;;;;;24.29;73.15;99214.09;5082805;28;20026;-59
2022/07/07 04:06:22;;;;;;;17.45;13.20;;;;;;;24.40;73.04;99220.28;5046024;28;20032;-60
2022/07/07 04:08:47;;;;;;;15.40;13.88;;;;;;;24.45;73.29;99212.78;5063752;28;20055;-61
2022/07/07 04:11:13;;;;;;;17.20;13.48;;;;;;;24.52;72.30;99210.44;5074673;28;20119;-62
2022/07/07 04:13:38;;;;;;;15.02;13.45;;;;;;;24.69;73.08;99228.38;5083596;28;20280;-61
2022/07/07 04:16:04;;;;;;;17.23;13.98;;;;;;;24.38;72.11;99206.34;5081791;28;20040;-59
2022/07/07 04:18:30;;;;;;;15.13;13.73;;;;;;;24.52;72.29;99216.56;5063394;28;20039;-59
2022/07/07 04:20:55;;;;;;;15.02;13.55;;;;;;;24.67;71.74;99201.19;5063193;28;20020;-59
2022/07/07 04:23:21;;;;;;;14.55;13.07;;;;;;;24.81;71.67;99216.69;5063295;28;20035;-59
2022/07/07 04:25:47;;;;;;;15.23;12.88;;;;;;;24.90;71.55;99214.22;5070867;28;20020;-59
2022/07/07 04:28:12;;;;;;;15.35;13.77;;;;;;;24.77;70.86;99211.78;5080244;28;20097;-59
2022/07/07 04:30:38;;;;;;;14.45;12.95;;;;;;;24.79;71.90;99215.16;5063233;28;20025;-59
2022/07/07 04:33:04;;;;;;;15.40;13.75;;;;;;;24.89;71.16;99209.88;5063065;28;20044;-59
2022/07/07 04:35:29;;;;;;;14.80;12.38;;;;;;;24.81;71.14;99215.84;5063109;28;20025;-59
2022/07/07 04:37:55;;;;;;;19.52;13.15;;;;;;;24.84;71.18;99206.78;5067460;28;20412;-59
2022/07/07 04:40:21;;;;;;;21.63;12.70;;;;;;;24.94;71.79;99205.84;5048797;28;20031;-60
2022/07/07 04:42:47;;;;;;;14.85;13.23;;;;;;;24.91;70.96;99194.66;5083208;28;20201;-59
2022/07/07 04:45:12;;;;;;;15.18;13.68;;;;;;;25.02;71.34;99202.50;5080799;28;20031;-61
2022/07/07 04:47:42;;;;;;;14.63;13.15;;;;;;;25.14;70.87;99201.41;5077277;28;20036;-60
2022/07/07 04:50:12;;;;;;;18.25;13.45;;;;;;;25.20;70.65;99205.31;5072555;28;20106;-59
2022/07/07 04:52:39;;;;;;;15.77;14.18;;;;;;;25.30;70.84;99192.06;5061965;28;20048;-59
2022/07/07 04:55:06;;;;;;;16.05;13.70;;;;;;;25.42;70.84;99198.09;5062517;28;20052;-60
2022/07/07 04:57:32;;;;;;;16.02;14.32;;;;;;;25.49;70.67;99189.41;5063054;28;20029;-59
2022/07/07 04:59:58;;;;;;;17.05;13.30;;;;;;;25.65;69.98;99194.16;5062556;28;20071;-59
2022/07/07 05:02:24;;;;;;;16.42;14.05;;;;;;;25.74;70.39;99194.25;5074598;28;20326;-60
2022/07/07 05:04:49;;;;;;;16.23;14.02;;;;;;;25.87;70.52;99191.31;5082679;28;20074;-60
2022/07/07 05:07:16;;;;;;;13.50;12.27;;;;;;;26.04;70.04;99187.09;5079856;28;20061;-59
2022/07/07 05:09:42;;;;;;;14.60;13.20;;;;;;;25.99;68.44;99188.31;5044782;28;20036;-60
2022/07/07 05:12:08;;;;;;;14.57;13.10;;;;;;;26.10;67.94;99182.06;5080803;28;20029;-60
2022/07/07 05:14:34;;;;;;;18.85;13.23;;;;;;;26.21;68.31;99182.84;5082454;28;20025;-60
2022/07/07 05:16:59;;;;;;;15.82;14.27;;;;;;;25.91;68.27;99182.06;5073444;28;20045;-60
2022/07/07 05:19:26;;;;;;;13.85;12.25;;;;;;;26.18;67.74;99178.66;5066969;28;20028;-60
2022/07/07 05:21:52;;;;;;;18.40;14.15;;;;;;;26.04;67.93;99180.00;5082668;28;20024;-59
2022/07/07 05:24:17;;;;;;;14.23;12.65;;;;;;;26.18;66.85;99176.00;5062749;28;20094;-59
2022/07/07 05:26:44;;;;;;;16.67;12.88;;;;;;;26.32;66.91;99174.69;5062508;28;20029;-59
2022/07/07 05:29:09;;;;;;;14.05;12.38;;;;;;;26.41;66.21;99172.97;5062125;28;20124;-60
2022/07/07 05:31:35;;;;;;;14.45;13.02;;;;;;;26.56;66.54;99165.34;5062243;28;20025;-59
2022/07/07 05:34:00;;;;;;;15.25;12.63;;;;;;;26.76;67.02;99174.91;5063059;28;20021;-59
2022/07/07 05:36:26;;;;;;;15.98;12.23;;;;;;;26.79;67.30;99166.63;5068831;28;20016;-59
2022/07/07 05:38:52;;;;;;;15.43;12.63;;;;;;;26.75;66.66;99156.44;5065646;28;20049;-60
2022/07/07 05:41:18;;;;;;;15.63;11.48;;;;;;;26.86;66.05;99167.72;5073085;28;20074;-60
2022/07/07 05:43:44;;;;;;;15.10;12.32;;;;;;;26.88;64.85;99170.22;5082082;28;20043;-60
2022/07/07 05:46:11;;;;;;;20.55;13.05;;;;;;;26.72;64.18;99178.00;5054051;28;20020;-59
2022/07/07 05:48:37;;;;;;;15.45;12.95;;;;;;;26.81;65.18;99179.78;5061879;28;20024;-61
2022/07/07 05:51:03;;;;;;;15.98;12.73;;;;;;;26.78;64.76;99174.75;5046720;28;20096;-61
2022/07/07 05:53:29;;;;;;;13.27;11.85;;;;;;;26.80;65.09;99189.56;5061631;28;20021;-61
2022/07/07 05:55:56;;;;;;;14.38;11.20;;;;;;;26.86;65.08;99172.19;5069811;28;20213;-61
2022/07/07 05:58:21;;;;;;;14.95;12.20;;;;;;;26.87;64.79;99180.00;5078251;28;20017;-60
2022/07/07 06:00:47;;;;;;;13.65;11.80;;;;;;;26.89;65.59;99179.84;5061174;28;20094;-63
2022/07/07 06:03:12;;;;;;;22.77;13.10;;;;;;;26.64;65.29;99187.53;5060546;28;20025;-60
2022/07/07 06:05:38;;;;;;;17.30;12.27;;;;;;;26.67;66.55;99181.91;5057829;28;20033;-61
2022/07/07 06:08:04;;;;;;;19.70;13.35;;;;;;;26.74;66.29;99184.84;5060782;28;20326;-59
2022/07/07 06:10:31;;;;;;;17.25;11.70;;;;;;;26.85;67.17;99181.13;5050331;28;20033;-59
2022/07/07 06:12:56;;;;;;;15.60;12.55;;;;;;;26.60;67.88;99182.66;5063134;28;20222;-59
2022/07/07 06:15:22;;;;;;;13.20;11.82;;;;;;;26.65;65.10;99172.41;5064346;28;20025;-62
2022/07/07 06:17:48;;;;;;;13.13;11.63;;;;;;;26.76;64.57;99171.41;5054560;28;20025;-63
2022/07/07 06:20:14;;;;;;;15.52;10.57;;;;;;;26.84;64.50;99172.34;5061547;28;20071;-64
2022/07/07 06:22:39;;;;;;;13.85;10.73;;;;;;;26.97;63.85;99173.78;5064297;28;20107;-64
2022/07/07 06:25:07;;;;;;;12.73;11.32;;;;;;;27.04;64.52;99175.69;5061744;28;20029;-62
2022/07/07 06:27:33;;;;;;;12.00;10.73;;;;;;;27.05;63.60;99171.22;5061305;28;20039;-63
2022/07/07 06:29:58;;;;;;;14.05;11.30;;;;;;;27.06;63.48;99164.06;5055933;28;20211;-63
2022/07/07 06:32:24;;;;;;;13.60;10.60;;;;;;;27.13;63.26;99162.47;5061932;28;20290;-60
2022/07/07 06:34:49;;;;;;;13.95;10.82;;;;;;;27.24;63.55;99170.22;5058624;28;20056;-62
2022/07/07 06:37:15;;;;;;;15.43;10.48;;;;;;;27.31;62.56;99165.13;5045978;28;20045;-63
2022/07/07 06:39:41;;;;;;;16.90;11.07;;;;;;;27.33;62.10;99171.13;5062380;28;20033;-63
2022/07/07 06:42:06;;;;;;;12.60;11.38;;;;;;;27.12;60.39;99164.31;5061800;28;20345;-63
2022/07/07 06:44:32;;;;;;;11.93;10.32;;;;;;;27.23;59.94;99165.88;5045081;28;20025;-62
2022/07/07 06:46:58;;;;;;;15.25;10.60;;;;;;;27.47;60.46;99159.13;5062649;28;20041;-61
2022/07/07 06:49:28;;;;;;;13.82;10.68;;;;;;;27.59;61.18;99149.88;5068018;28;20044;-63
2022/07/07 06:51:54;;;;;;;14.18;10.98;;;;;;;27.78;61.22;99156.03;5085400;28;20020;-65
2022/07/07 06:54:20;;;;;;;12.82;11.23;;;;;;;27.79;60.40;99157.66;5078582;28;20072;-63
2022/07/07 06:56:46;;;;;;;13.63;12.10;;;;;;;27.81;60.48;99166.34;5057694;28;20025;-62
2022/07/07 06:59:12;;;;;;;11.75;10.52;;;;;;;27.83;59.09;99169.66;5065513;28;20032;-61
2022/07/07 07:01:37;;;;;;;12.32;10.60;;;;;;;27.89;59.77;99171.69;5061612;28;20051;-63
2022/07/07 07:04:04;;;;;;;15.75;11.65;;;;;;;27.97;59.49;99171.75;5059942;28;20048;-64
2022/07/07 07:06:30;;;;;;;15.07;11.25;;;;;;;28.09;60.47;99164.38;5064314;28;20040;-63
2022/07/07 07:08:56;;;;;;;14.23;10.77;;;;;;;28.05;60.29;99171.84;5062529;28;20059;-62
2022/07/07 07:11:22;;;;;;;14.63;11.98;;;;;;;28.02;60.19;99172.16;5062472;28;20029;-63
2022/07/07 07:13:48;;;;;;;18.00;11.57;;;;;;;28.19;60.15;99158.91;5062480;28;20421;-64
2022/07/07 07:16:17;;;;;;;13.20;11.13;;;;;;;28.35;60.66;99160.81;5062403;28;20037;-60
2022/07/07 07:18:43;;;;;;;15.98;11.20;;;;;;;28.44;58.81;99167.00;5061923;28;20087;-59
2022/07/07 07:21:09;;;;;;;11.98;10.75;;;;;;;28.63;59.61;99163.25;5062646;28;20067;-60
2022/07/07 07:23:37;;;;;;;11.75;10.60;;;;;;;28.64;59.17;99165.75;5063423;28;20075;-60
2022/07/07 07:26:04;;;;;;;12.88;11.57;;;;;;;28.61;59.40;99162.56;5068086;28;20055;-60
2022/07/07 07:28:30;;;;;;;14.65;10.80;;;;;;;28.69;58.58;99171.44;5063906;28;20021;-58
2022/07/07 07:30:55;;;;;;;12.85;11.35;;;;;;;28.73;57.82;99166.59;5046570;28;20044;-60
2022/07/07 07:33:21;;;;;;;12.73;10.95;;;;;;;28.71;58.24;99164.09;5046510;28;20017;-58
2022/07/07 07:35:46;;;;;;;14.43;11.38;;;;;;;28.66;57.40;99161.13;5078813;28;20016;-58
2022/07/07 07:38:12;;;;;;;15.43;11.50;;;;;;;28.67;56.67;99165.44;5074352;28;20082;-58
2022/07/07 07:40:37;;;;;;;13.50;10.50;;;;;;;28.77;56.92;99161.81;5064200;28;20033;-58
2022/07/07 07:43:03;;;;;;;15.00;11.02;;;;;;;28.57;54.52;99167.38;5064243;28;20029;-58
2022/07/07 07:45:29;;;;;;;14.55;10.68;;;;;;;28.67;54.58;99162.75;5080080;28;20118;-57
2022/07/07 07:47:56;;;;;;;12.68;10.85;;;;;;;28.46;55.48;99127.72;5064037;28;20333;-58
2022/07/07 07:50:22;;;;;;;12.27;10.57;;;;;;;28.84;54.52;99166.31;5064305;28;20025;-58
2022/07/07 07:52:49;;;;;;;12.70;10.70;;;;;;;28.80;55.73;99164.13;5064276;28;20032;-58
2022/07/07 07:55:17;;;;;;;13.13;10.60;;;;;;;28.88;53.81;99164.16;5063886;28;20340;-57
2022/07/07 07:57:43;;;;;;;17.83;10.52;;;;;;;28.96;54.23;99164.19;5064174;28;20031;-59
2022/07/07 08:00:11;;;;;;;14.55;11.48;;;;;;;28.99;55.92;99179.00;5067461;28;20199;-59
2022/07/07 08:02:37;;;;;;;11.30;10.20;;;;;;;29.16;54.79;99163.84;5063620;28;20021;-60
2022/07/07 08:05:03;;;;;;;14.23;10.55;;;;;;;29.19;55.16;99166.19;5064204;28;20097;-59
2022/07/07 08:07:29;;;;;;;12.70;10.88;;;;;;;29.19;55.17;99166.19;5064263;28;20033;-59
2022/07/07 08:09:54;;;;;;;15.45;11.48;;;;;;;29.09;54.88;99166.34;5063718;28;20371;-60
2022/07/07 08:12:20;;;;;;;13.23;11.40;;;;;;;29.19;55.30;99177.69;5063473;28;20032;-59
2022/07/07 08:14:45;;;;;;;12.95;10.27;;;;;;;29.26;52.95;99176.06;5063698;28;20037;-59
2022/07/07 08:17:11;;;;;;;11.63;10.45;;;;;;;29.45;53.47;99171.38;5063544;28;20024;-59
2022/07/07 08:19:37;;;;;;;14.70;10.82;;;;;;;29.41;51.63;99170.88;5063423;28;20021;-59
2022/07/07 08:22:03;;;;;;;15.57;10.70;;;;;;;29.60;52.09;99179.53;5063351;28;20021;-59
2022/07/07 08:24:29;;;;;;;13.30;10.70;;;;;;;29.65;53.55;99171.88;5063024;28;20064;-60
2022/07/07 08:26:54;;;;;;;15.05;10.38;;;;;;;29.57;51.65;99183.41;5078621;28;20032;-60
2022/07/07 08:29:20;;;;;;;11.88;10.70;;;;;;;29.50;50.48;99173.53;5072530;28;20379;-59
2022/07/07 08:31:45;;;;;;;14.23;11.18;;;;;;;29.60;49.82;99176.88;5062862;28;20097;-59
2022/07/07 08:34:11;;;;;;;13.90;11.73;;;;;;;29.66;50.65;99181.53;5063053;28;20067;-59
2022/07/07 08:36:37;;;;;;;15.65;10.77;;;;;;;29.79;50.53;99168.50;5063167;28;20025;-60
2022/07/07 08:39:02;;;;;;;12.32;11.15;;;;;;;29.73;50.85;99171.84;5045093;28;20250;-59
2022/07/07 08:41:28;;;;;;;13.73;11.70;;;;;;;29.71;50.84;99170.34;5074564;28;20032;-59
2022/07/07 08:43:55;;;;;;;12.23;10.98;;;;;;;29.89;48.63;99176.34;5075960;28;20369;-59
2022/07/07 08:46:22;;;;;;;13.10;11.90;;;;;;;29.87;50.70;99172.19;5055946;28;20017;-59
2022/07/07 08:48:47;;;;;;;16.45;12.15;;;;;;;29.74;50.56;99172.69;5073605;28;20037;-60
2022/07/07 08:51:15;;;;;;;13.50;11.35;;;;;;;29.77;49.48;99141.16;5062890;28;20021;-60
2022/07/07 08:53:44;;;;;;;13.10;10.60;;;;;;;29.77;47.62;99143.81;5069313;28;20024;-59
2022/07/07 08:56:09;;;;;;;23.10;11.30;;;;;;;30.13;48.11;99172.78;5071612;28;20027;-60
2022/07/07 08:58:36;;;;;;;12.77;11.50;;;;;;;30.13;48.89;99179.97;5070135;28;20111;-60
2022/07/07 09:01:06;;;;;;;15.73;11.70;;;;;;;30.13;48.60;99180.78;5062834;28;20084;-59
2022/07/07 09:03:32;;;;;;;15.43;12.73;;;;;;;29.87;50.18;99170.38;5043033;28;20099;-60
2022/07/07 09:05:59;;;;;;;13.30;12.00;;;;;;;30.03;50.31;99174.81;5058135;28;20029;-60
2022/07/07 09:08:26;;;;;;;13.38;11.43;;;;;;;30.25;49.34;99175.91;5062594;28;20244;-60
2022/07/07 09:10:52;;;;;;;14.70;12.45;;;;;;;30.23;48.71;99169.06;5068846;28;20074;-60
2022/07/07 09:13:26;;;;;;;12.57;11.52;;;;;;;30.01;49.62;99171.47;5080911;28;20027;-60
2022/07/07 09:15:54;;;;;;;13.35;11.95;;;;;;;30.15;49.23;99166.44;5062493;28;20288;-60
2022/07/07 09:18:37;;;;;;;13.82;11.38;;;;;;;30.28;48.34;99156.03;5062580;28;20037;-60
2022/07/07 09:21:06;;;;;;;17.52;12.40;;;;;;;30.57;48.10;99166.13;5062376;28;20029;-60
2022/07/07 09:23:34;;;;;;;14.35;12.95;;;;;;;30.70;48.53;99170.88;5062565;28;20056;-60
2022/07/07 09:26:01;;;;;;;14.18;12.15;;;;;;;30.71;49.55;99172.53;5062483;28;20218;-60
2022/07/07 09:28:27;;;;;;;13.45;12.05;;;;;;;30.76;48.05;99170.19;5062622;28;20074;-60
2022/07/07 09:30:54;;;;;;;14.60;12.65;;;;;;;30.47;48.48;99138.75;5062617;28;20025;-60
2022/07/07 09:33:22;;;;;;;13.48;11.95;;;;;;;30.67;51.18;99139.16;5062542;28;20037;-60
2022/07/07 09:38:35;;;;;;;15.23;13.32;;;;;;;30.55;48.58;99183.31;5062382;28;20036;-59
2022/07/07 09:41:05;;;;;;;14.20;12.68;;;;;;;30.57;48.87;99176.81;5063957;28;20025;-60
2022/07/07 09:43:35;;;;;;;16.02;12.55;;;;;;;30.74;48.02;99166.84;5069587;28;20032;-60
2022/07/07 09:46:10;;;;;;;13.18;11.80;;;;;;;30.80;49.09;99170.66;5077819;28;20326;-61
2022/07/07 09:48:37;;;;;;;13.77;12.48;;;;;;;30.79;49.04;99159.13;5065979;28;20025;-60
2022/07/07 09:51:13;;;;;;;14.50;12.30;;;;;;;30.58;48.32;99135.69;5066599;28;20100;-60
2022/07/07 09:54:04;;;;;;;15.15;11.82;;;;;;;30.93;46.64;99170.09;5066103;28;20043;-60
2022/07/07 09:56:44;;;;;;;14.23;12.27;;;;;;;30.84;46.66;99166.59;5048935;28;20036;-59
2022/07/07 09:59:19;;;;;;;20.92;12.57;;;;;;;30.90;46.59;99151.69;5066387;28;20229;-61
2022/07/07 10:01:46;;;;;;;13.55;12.27;;;;;;;30.97;47.43;99166.88;5066034;28;20032;-61
2022/07/07 10:04:17;;;;;;;12.45;11.23;;;;;;;30.60;48.64;99164.94;5066370;28;20021;-62
2022/07/07 10:06:43;;;;;;;14.05;12.65;;;;;;;30.52;49.46;99167.66;5066151;28;20056;-61
2022/07/07 10:09:11;;;;;;;15.32;13.80;;;;;;;30.55;47.62;99167.28;5065977;28;20245;-62
2022/07/07 10:11:41;;;;;;;13.98;12.57;;;;;;;30.50;48.96;99169.66;5048145;28;20226;-61
2022/07/07 10:14:21;;;;;;;12.83;11.60;;;;;;;30.39;47.48;99160.16;5066186;28;20028;-61
2022/07/07 10:16:51;;;;;;;12.50;11.30;;;;;;;30.33;48.19;99142.97;5065817;28;20529;-61
2022/07/07 10:19:23;;;;;;;13.52;10.13;;;;;;;30.44;46.39;99139.97;5065478;28;20341;-61
2022/07/07 10:21:54;;;;;;;13.02;10.60;;;;;;;30.54;47.98;99168.28;5065568;28;20032;-61
2022/07/07 10:24:22;;;;;;;12.70;10.73;;;;;;;30.68;46.86;99167.53;5065889;28;20033;-61
2022/07/07 10:26:53;;;;;;;13.45;10.90;;;;;;;30.61;48.15;99174.59;5079233;28;20032;-61
2022/07/07 10:29:55;;;;;;;15.90;11.95;;;;;;;30.64;46.28;99179.59;5066302;28;20040;-61
2022/07/07 10:32:33;;;;;;;15.65;11.82;;;;;;;30.76;47.00;99182.72;5065589;28;20031;-62
2022/07/07 10:35:06;;;;;;;16.85;12.07;;;;;;;30.64;46.32;99151.03;5065401;28;20067;-61
2022/07/07 10:37:47;;;;;;;13.82;12.02;;;;;;;31.02;46.65;99186.94;5065526;28;20063;-61
2022/07/07 10:40:17;;;;;;;13.43;11.13;;;;;;;31.12;46.40;99179.50;5065527;28;20028;-61
2022/07/07 10:43:04;;;;;;;13.13;12.03;;;;;;;31.01;46.05;99180.72;5065513;28;20108;-61
2022/07/07 10:45:30;;;;;;;12.88;11.57;;;;;;;30.97;48.24;99171.41;5047432;28;20304;-61
2022/07/07 10:47:56;;;;;;;13.10;11.50;;;;;;;30.78;45.77;99178.88;5065447;28;20209;-61
2022/07/07 10:50:28;;;;;;;13.38;12.00;;;;;;;30.44;45.05;99158.66;5065230;28;20196;-61
2022/07/07 10:52:54;;;;;;;19.27;12.52;;;;;;;30.66;45.87;99177.59;5064991;28;20096;-61
2022/07/07 10:55:20;;;;;;;13.85;12.18;;;;;;;30.55;46.98;99180.66;5047236;28;20040;-61
2022/07/07 10:57:47;;;;;;;13.00;11.00;;;;;;;30.44;45.80;99149.78;5065647;28;20234;-61
2022/07/07 11:00:26;;;;;;;13.35;11.55;;;;;;;30.56;46.80;99134.22;5064441;28;20293;-62
2022/07/07 11:03:08;;;;;;;12.55;11.25;;;;;;;30.54;46.93;99134.41;5078413;28;20039;-60
2022/07/07 11:05:34;;;;;;;13.00;11.80;;;;;;;30.87;46.02;99181.47;5073555;28;20059;-60
2022/07/07 11:08:02;;;;;;;14.65;11.85;;;;;;;30.84;46.44;99171.13;5065176;28;20044;-60
2022/07/07 11:10:49;;;;;;;13.40;12.07;;;;;;;30.83;46.21;99178.31;5064659;28;20043;-60
2022/07/07 11:13:29;;;;;;;13.00;11.70;;;;;;;30.61;45.64;99142.53;5064529;28;20028;-61
2022/07/07 11:16:27;;;;;;;13.10;11.70;;;;;;;30.89;46.46;99174.94;5064961;28;20028;-61
2022/07/07 11:18:58;;;;;;;13.82;12.25;;;;;;;30.90;48.00;99165.91;5032761;28;20065;-60
2022/07/07 11:21:36;;;;;;;13.68;12.23;;;;;;;30.73;48.53;99170.53;5062835;28;20233;-60